Time;durP1;ratioP1;P1;durP2;ratioP2;P2;SDS_P1;SDS_P2;PMS_P1;PMS_P2;Temp;Humidity;BMP_temperature;BMP_pressure;BME280_temperature;BME280_humidity;BME280_pressure;Samples;Min_cycle;Max_cycle;Signal;HPM_P1;HPM_P2
2022/04/13 00:00:34;;;;;;;5.05;1.73;;;2.90;1.00;;;2.39;78.04;99661.69;5041325;27;119981;-69
2022/04/13 00:03:03;;;;;;;6.38;2.10;;;2.90;1.00;;;2.45;77.69;99666.03;5041611;27;120033;-69
2022/04/13 00:05:32;;;;;;;4.60;1.92;;;2.80;1.00;;;2.35;78.18;99660.56;5041058;27;130317;-69
2022/04/13 00:08:05;;;;;;;3.03;1.85;;;2.80;1.00;;;2.45;78.05;99663.38;5039474;27;129642;-69
2022/04/13 00:10:35;;;;;;;4.53;1.88;;;2.80;1.00;;;2.31;78.45;99670.19;5040075;27;119828;-69
2022/04/13 00:13:05;;;;;;;4.03;1.83;;;2.80;1.00;;;2.31;78.15;99671.00;5043665;27;118553;-68
2022/04/13 00:15:34;;;;;;;4.55;1.90;;;2.80;1.00;;;2.36;78.24;99664.88;5040846;27;130155;-69
2022/04/13 00:18:06;;;;;;;3.83;1.88;;;2.80;1.00;;;2.38;78.00;99670.78;5039389;27;130157;-70
2022/04/13 00:20:36;;;;;;;5.30;2.00;;;2.70;1.00;;;2.27;78.76;99674.44;5039947;27;121729;-71
2022/04/13 00:23:04;;;;;;;3.90;2.00;;;2.70;1.00;;;2.21;78.84;99675.44;5041004;27;121856;-69
2022/04/13 00:25:33;;;;;;;3.63;1.80;;;2.70;1.00;;;2.33;78.49;99678.78;5040820;27;129944;-70
2022/04/13 00:28:02;;;;;;;4.10;1.70;;;2.70;1.00;;;2.21;79.02;99680.78;5040634;27;129663;-70
2022/04/13 00:30:32;;;;;;;3.53;1.60;;;2.70;1.00;;;2.30;78.51;99668.56;5041064;27;120193;-69
2022/04/13 00:33:01;;;;;;;4.05;2.10;;;2.60;1.00;;;2.29;78.84;99677.66;5042983;27;118896;-69
2022/04/13 00:35:30;;;;;;;4.85;1.92;;;2.70;1.00;;;2.11;79.22;99682.28;5039063;27;129838;-69
2022/04/13 00:37:58;;;;;;;3.75;1.70;;;2.60;1.00;;;2.11;79.34;99676.94;5023162;27;129858;-69
2022/04/13 00:40:27;;;;;;;5.45;2.30;;;2.60;1.00;;;2.06;79.50;99679.56;5040916;27;119872;-70
2022/04/13 00:42:56;;;;;;;3.97;1.50;;;2.60;1.00;;;2.06;79.34;99684.13;5040826;27;120958;-69
2022/04/13 00:45:25;;;;;;;3.60;1.63;;;2.60;1.00;;;2.13;79.17;99685.53;5039065;27;130191;-68
2022/04/13 00:47:55;;;;;;;4.55;1.83;;;2.50;1.00;;;2.04;79.63;99687.06;5040148;27;130105;-69
2022/04/13 00:50:25;;;;;;;4.60;1.90;;;2.40;1.00;;;1.96;79.88;99684.78;5025413;27;118696;-69
2022/04/13 00:52:55;;;;;;;4.75;2.13;;;2.40;1.00;;;1.98;79.78;99678.16;5040809;27;119802;-70
2022/04/13 00:55:25;;;;;;;5.03;2.10;;;2.40;1.00;;;1.97;80.21;99675.72;5040109;27;130319;-69
2022/04/13 00:57:58;;;;;;;2.97;1.80;;;2.40;1.00;;;1.96;80.55;99679.44;5042288;27;129476;-70
2022/04/13 01:00:26;;;;;;;3.65;1.80;;;2.40;1.00;;;1.91;80.56;99682.06;5042602;27;118918;-69
2022/04/13 01:02:58;;;;;;;4.03;1.90;;;2.30;1.00;;;1.89;80.79;99681.53;5040818;27;119451;-71
2022/04/13 01:05:27;;;;;;;4.63;2.05;;;2.30;1.00;;;1.83;80.77;99693.22;5038843;27;130970;-69
2022/04/13 01:07:56;;;;;;;3.60;1.83;;;2.30;1.00;;;1.81;81.34;99688.13;5040075;27;130083;-70
2022/04/13 01:10:26;;;;;;;4.38;2.00;;;2.20;1.00;;;1.80;81.24;99698.00;5039240;27;122475;-70
2022/04/13 01:12:56;;;;;;;4.10;1.98;;;2.30;1.00;;;1.84;81.38;99694.81;5039942;27;122225;-69
2022/04/13 01:15:24;;;;;;;3.53;2.10;;;2.20;1.00;;;1.74;81.42;99695.50;5040110;27;129789;-70
2022/04/13 01:17:53;;;;;;;4.90;2.38;;;2.10;1.00;;;1.79;80.87;99691.03;5040097;27;129362;-70
2022/04/13 01:20:24;;;;;;;5.75;2.30;;;2.10;1.00;;;1.76;81.04;99701.41;5040245;27;119572;-68
2022/04/13 01:22:54;;;;;;;5.43;2.17;;;2.10;1.00;;;1.77;80.75;99682.44;5039841;27;119759;-70
2022/04/13 01:25:23;;;;;;;5.53;2.90;;;2.00;1.00;;;1.71;81.53;99699.47;5038629;27;130184;-70
2022/04/13 01:27:53;;;;;;;4.35;1.85;;;1.90;1.00;;;1.61;81.72;99694.00;5044660;27;102595;-69
2022/04/13 01:30:23;;;;;;;3.85;2.22;;;1.80;1.00;;;1.64;81.60;99695.34;5040157;27;120058;-68
2022/04/13 01:32:53;;;;;;;3.97;1.80;;;1.80;1.00;;;1.51;82.12;99691.19;5039885;27;119444;-68
2022/04/13 01:35:24;;;;;;;3.53;1.75;;;1.70;1.00;;;1.50;82.40;99697.59;5023672;27;128754;-68
2022/04/13 01:37:54;;;;;;;5.38;1.98;;;1.80;1.00;;;1.59;82.11;99701.44;5039727;27;129958;-69
2022/04/13 01:40:23;;;;;;;5.20;2.35;;;1.80;1.00;;;1.50;82.15;99689.59;5038527;27;119688;-68
2022/04/13 01:42:52;;;;;;;5.00;2.25;;;1.80;1.00;;;1.51;82.31;99700.03;5039881;27;119672;-69
2022/04/13 01:45:21;;;;;;;4.03;1.98;;;1.90;1.00;;;1.59;81.92;99691.59;5041608;27;129660;-68
2022/04/13 01:47:49;;;;;;;5.15;2.95;;;1.90;1.00;;;1.64;81.76;99696.19;5039580;27;129671;-69
2022/04/13 01:50:19;;;;;;;4.13;1.65;;;1.90;1.00;;;1.61;81.61;99699.34;5042825;27;119563;-69
2022/04/13 01:52:49;;;;;;;3.80;1.75;;;1.90;1.00;;;1.63;81.97;99702.59;5040137;27;119812;-69
2022/04/13 01:55:20;;;;;;;4.07;1.90;;;1.90;1.00;;;1.67;81.15;99702.91;5041503;27;129296;-69
2022/04/13 01:57:48;;;;;;;3.80;1.80;;;1.90;1.00;;;1.58;81.95;99702.53;5039407;27;129842;-70
2022/04/13 02:00:17;;;;;;;6.35;2.70;;;1.90;1.00;;;1.59;81.73;99699.59;5037339;27;122620;-69
2022/04/13 02:02:46;;;;;;;5.68;1.83;;;1.90;1.00;;;1.58;81.85;99713.22;5039477;27;121748;-71
2022/04/13 02:05:15;;;;;;;6.50;2.00;;;1.90;1.00;;;1.51;81.97;99712.59;5024288;27;128784;-68
2022/04/13 02:07:44;;;;;;;3.47;1.60;;;1.90;1.00;;;1.59;81.79;99715.66;5039331;27;130827;-69
2022/04/13 02:10:13;;;;;;;5.65;2.05;;;1.90;1.00;;;1.56;81.89;99702.78;5039135;27;119655;-69
2022/04/13 02:12:44;;;;;;;3.75;1.90;;;1.90;1.00;;;1.49;81.88;99706.69;5041548;27;118648;-69
2022/04/13 02:15:13;;;;;;;4.85;2.30;;;1.90;1.00;;;1.49;82.07;99714.69;5039150;27;130044;-69
2022/04/13 02:17:41;;;;;;;3.28;1.65;;;1.80;1.00;;;1.43;81.97;99708.47;5039472;27;129425;-70
2022/04/13 02:20:11;;;;;;;4.07;1.92;;;1.70;1.00;;;1.30;82.73;99717.63;5039375;27;119846;-69
2022/04/13 02:22:40;;;;;;;4.57;2.08;;;1.60;1.00;;;1.36;82.50;99714.00;5058336;27;118267;-71
2022/04/13 02:25:10;;;;;;;4.43;1.67;;;1.60;1.00;;;1.44;82.34;99708.22;5037794;27;130111;-69
2022/04/13 02:27:38;;;;;;;4.45;1.55;;;1.60;1.00;;;1.43;82.14;99714.63;5039233;27;130006;-71
2022/04/13 02:30:09;;;;;;;5.18;1.95;;;1.60;1.00;;;1.34;82.14;99710.75;5038182;27;119602;-71
2022/04/13 02:32:39;;;;;;;4.35;1.92;;;1.50;1.00;;;1.28;82.67;99717.09;5041376;27;118489;-69
2022/04/13 02:35:09;;;;;;;3.60;1.80;;;1.50;1.00;;;1.21;83.36;99716.44;5041749;27;131614;-70
2022/04/13 02:37:38;;;;;;;4.53;1.98;;;1.40;1.00;;;1.18;83.59;99711.56;5038567;27;130403;-70
2022/04/13 02:40:08;;;;;;;4.18;2.00;;;1.40;1.00;;;1.13;83.41;99714.19;5039314;27;119952;-69
2022/04/13 02:42:37;;;;;;;3.05;1.63;;;1.30;1.00;;;0.97;84.28;99721.94;5039501;27;119526;-68
2022/04/13 02:45:09;;;;;;;4.65;2.10;;;1.30;1.00;;;0.78;85.73;99732.06;5038566;27;130019;-71
2022/04/13 02:47:38;;;;;;;4.55;2.22;;;1.20;1.00;;;0.86;84.99;99717.50;5038434;27;129607;-70
2022/04/13 02:50:08;;;;;;;5.03;2.20;;;1.10;1.00;;;0.95;84.75;99729.41;5037785;27;122188;-71
2022/04/13 02:52:36;;;;;;;5.00;2.20;;;1.00;1.00;;;0.66;86.20;99728.63;5039103;27;122197;-71
2022/04/13 02:55:08;;;;;;;4.88;2.20;;;1.10;1.00;;;0.77;85.86;99721.63;5037267;27;129662;-72
2022/04/13 02:57:37;;;;;;;4.85;2.20;;;1.00;1.00;;;0.75;86.29;99729.03;5040548;27;128268;-71
2022/04/13 03:00:08;;;;;;;3.65;2.17;;;1.00;1.00;;;0.68;86.35;99730.00;5039085;27;120088;-71
2022/04/13 03:02:39;;;;;;;5.07;2.30;;;1.00;1.00;;;0.68;86.43;99735.34;5023784;27;119895;-67
2022/04/13 03:05:10;;;;;;;4.10;2.22;;;1.00;1.00;;;0.71;86.27;99728.72;5038230;27;129773;-68
2022/04/13 03:07:38;;;;;;;5.38;2.08;;;1.00;1.00;;;0.68;86.36;99730.00;5038916;27;130073;-70
2022/04/13 03:10:08;;;;;;;4.35;2.10;;;0.90;1.00;;;0.71;86.29;99729.53;5024561;27;118676;-69
2022/04/13 03:12:37;;;;;;;4.97;2.00;;;0.80;1.00;;;0.67;86.27;99739.09;5044178;27;119035;-71
2022/04/13 03:15:08;;;;;;;4.70;2.38;;;0.90;1.00;;;0.78;86.01;99732.06;5025370;27;128861;-72
2022/04/13 03:17:37;;;;;;;5.78;2.40;;;0.80;1.00;;;0.74;85.80;99738.13;5040370;27;129249;-72
2022/04/13 03:20:08;;;;;;;7.95;2.67;;;0.80;1.00;;;0.79;85.54;99746.22;5044038;27;119138;-71
2022/04/13 03:22:36;;;;;;;5.88;2.50;;;0.70;1.00;;;0.79;85.81;99751.56;5044043;27;118594;-71
2022/04/13 03:25:06;;;;;;;5.05;2.42;;;0.80;1.00;;;0.78;85.44;99744.59;5042910;27;129837;-72
2022/04/13 03:27:34;;;;;;;4.50;2.30;;;0.70;1.00;;;0.85;84.98;99746.06;5044415;27;129878;-71
2022/04/13 03:30:03;;;;;;;6.55;2.42;;;0.80;1.00;;;0.77;84.97;99740.31;5042048;27;119071;-70
2022/04/13 03:32:38;;;;;;;7.80;2.67;;;0.80;1.00;;;0.78;84.80;99742.75;5044095;27;118963;-70
2022/04/13 03:35:10;;;;;;;5.38;2.83;;;0.80;1.00;;;0.86;84.63;99739.66;5041606;27;129806;-70
2022/04/13 03:37:39;;;;;;;4.72;2.15;;;0.90;1.00;;;0.79;85.14;99740.88;5041423;27;129506;-70
2022/04/13 03:40:11;;;;;;;5.35;2.42;;;0.90;1.00;;;0.83;84.59;99742.03;5040555;27;122720;-70
2022/04/13 03:42:42;;;;;;;3.42;2.17;;;0.90;1.00;;;0.84;84.44;99740.97;5040021;27;122780;-69
2022/04/13 03:45:13;;;;;;;4.25;1.80;;;0.90;1.00;;;0.92;84.31;99745.94;5041421;27;130095;-69
2022/04/13 03:47:43;;;;;;;3.55;1.70;;;0.90;1.00;;;0.90;84.49;99742.66;5041217;27;130047;-69
2022/04/13 03:50:12;;;;;;;4.60;2.03;;;1.00;1.00;;;0.87;84.11;99754.66;5039939;27;119961;-69
2022/04/13 03:52:41;;;;;;;5.13;2.47;;;1.00;1.00;;;0.89;84.01;99749.06;5041715;27;119842;-71
2022/04/13 03:55:11;;;;;;;6.55;3.35;;;1.10;1.00;;;0.91;83.68;99757.66;5041211;27;129834;-69
2022/04/13 03:57:40;;;;;;;7.80;3.17;;;1.20;1.00;;;0.93;84.01;99758.22;5040234;27;129337;-69
2022/04/13 04:00:11;;;;;;;7.25;3.13;;;1.20;1.00;;;1.01;83.26;99760.50;5026240;27;119643;-69
2022/04/13 04:02:43;;;;;;;6.75;2.20;;;1.20;1.00;;;0.93;83.63;99758.22;5041408;27;120061;-70
2022/04/13 04:05:13;;;;;;;5.15;2.60;;;1.20;1.00;;;1.11;82.73;99759.03;5041659;27;128898;-70
2022/04/13 04:07:41;;;;;;;5.63;2.20;;;1.20;1.00;;;1.24;81.79;99767.53;5025790;27;129380;-72
2022/04/13 04:10:12;;;;;;;4.22;1.70;;;1.30;1.00;;;1.32;81.14;99771.69;5040926;27;120546;-71
2022/04/13 04:12:41;;;;;;;4.38;2.08;;;1.30;1.00;;;1.15;82.04;99770.88;5041409;27;119391;-72
2022/04/13 04:15:12;;;;;;;4.20;2.28;;;1.30;1.00;;;1.27;81.76;99770.81;5047471;27;130205;-70
2022/04/13 04:17:40;;;;;;;6.28;2.40;;;1.30;1.00;;;1.38;81.28;99767.22;5060832;27;129419;-69
2022/04/13 04:20:11;;;;;;;6.10;2.38;;;1.20;1.00;;;1.50;80.72;99769.81;5061944;27;118492;-71
2022/04/13 04:22:41;;;;;;;7.78;2.38;;;1.20;1.00;;;1.46;80.69;99771.38;5060766;27;119895;-72
2022/04/13 04:25:11;;;;;;;5.07;2.42;;;1.20;1.00;;;1.52;80.53;99770.38;5061204;27;129845;-76
2022/04/13 04:27:40;;;;;;;4.18;1.95;;;1.10;1.00;;;1.18;81.56;99778.41;5060732;27;130826;-72
2022/04/13 04:30:10;;;;;;;5.85;2.28;;;1.20;1.00;;;1.33;81.42;99773.31;5058418;27;122124;-72
2022/04/13 04:32:38;;;;;;;4.65;2.10;;;1.20;1.00;;;1.38;81.22;99781.41;5064121;27;121974;-71
2022/04/13 04:35:10;;;;;;;5.78;2.10;;;1.20;1.00;;;1.30;81.27;99784.50;5060633;27;129800;-71
2022/04/13 04:37:39;;;;;;;3.58;2.00;;;1.30;1.00;;;1.38;81.05;99789.44;5060496;27;129679;-71
2022/04/13 04:40:09;;;;;;;9.00;4.75;;;1.40;1.00;;;1.39;80.65;99793.72;5059753;27;120160;-69
2022/04/13 04:42:49;;;;;;;35.58;17.90;;;1.40;1.00;;;1.41;80.95;99796.16;5060925;27;119330;-69
2022/04/13 04:45:19;;;;;;;29.80;14.60;;;1.40;1.00;;;1.50;80.74;99791.22;5060304;27;130119;-67
2022/04/13 04:47:49;;;;;;;23.92;11.13;;;1.40;1.00;;;1.62;80.07;99791.91;5061140;27;130343;-73
2022/04/13 04:50:20;;;;;;;18.08;7.13;;;1.50;1.00;;;1.70;79.84;99794.19;5062866;27;120284;-72
2022/04/13 04:52:49;;;;;;;17.60;7.00;;;1.50;1.00;;;1.68;79.87;99796.28;5059804;27;119706;-74
2022/04/13 04:55:19;;;;;;;33.38;13.18;;;1.50;1.00;;;1.52;80.27;99799.81;5059296;27;129834;-73
2022/04/13 04:57:50;;;;;;;26.13;11.13;;;1.50;1.00;;;1.51;80.20;99811.56;5056156;27;129793;-74
2022/04/13 05:00:21;;;;;;;15.15;7.40;;;1.50;1.00;;;1.72;79.20;99801.97;5020435;27;119943;-74
2022/04/13 05:02:50;;;;;;;16.30;8.13;;;1.60;1.00;;;1.95;78.06;99811.69;4997995;27;131003;-73
2022/04/13 05:05:21;;;;;;;13.50;6.65;;;1.70;1.00;;;1.86;78.01;99819.31;5041534;27;129511;-74
2022/04/13 05:07:50;;;;;;;11.77;5.72;;;1.70;1.00;;;2.06;77.95;99826.03;5039863;27;129472;-73
2022/04/13 05:10:18;;;;;;;13.13;6.90;;;1.80;1.00;;;2.04;77.83;99823.59;5040844;27;118898;-74
2022/04/13 05:12:52;;;;;;;11.98;6.28;;;1.90;1.00;;;1.90;78.31;99830.31;5040283;27;119921;-73
2022/04/13 05:15:21;;;;;;;8.38;3.42;;;1.90;1.00;;;2.08;77.64;99830.06;5039994;27;131031;-73
2022/04/13 05:17:49;;;;;;;8.90;3.88;;;2.00;1.00;;;2.33;77.16;99824.22;5038462;27;129176;-74
2022/04/13 05:20:19;;;;;;;6.63;3.67;;;2.10;1.00;;;2.31;77.24;99820.97;5038746;27;122848;-72
2022/04/13 05:22:47;;;;;;;6.65;2.95;;;2.10;1.00;;;2.32;77.13;99822.63;5039934;27;121990;-73
2022/04/13 05:25:17;;;;;;;12.50;6.15;;;2.10;1.00;;;2.65;75.67;99830.75;5039365;27;129804;-73
2022/04/13 05:27:46;;;;;;;8.10;3.90;;;2.30;1.00;;;2.64;74.69;99845.22;5039855;27;130413;-73
2022/04/13 05:30:15;;;;;;;7.72;3.72;;;2.30;1.00;;;3.01;74.32;99844.56;5039973;27;120661;-72
2022/04/13 05:32:51;;;;;;;6.85;3.15;;;2.40;1.00;;;3.02;73.61;99843.47;5039925;27;119523;-74
2022/04/13 05:35:21;;;;;;;7.45;3.90;;;2.50;1.00;;;3.21;73.33;99844.75;5038213;27;130818;-73
2022/04/13 05:37:50;;;;;;;8.20;4.07;;;2.50;1.00;;;3.59;72.08;99848.28;5041895;27;129973;-73
2022/04/13 05:40:19;;;;;;;9.60;3.60;;;2.70;1.00;;;3.47;71.87;99836.91;5055411;27;119722;-73
2022/04/13 05:42:48;;;;;;;8.38;3.83;;;2.70;1.00;;;3.46;72.21;99851.41;5040022;27;119496;-72
2022/04/13 05:45:17;;;;;;;11.73;5.63;;;2.80;1.00;;;3.44;71.79;99853.53;5038175;27;130124;-73
2022/04/13 05:47:45;;;;;;;12.32;4.80;;;2.80;1.00;;;3.46;71.98;99856.78;5039584;27;130234;-72
2022/04/13 05:50:15;;;;;;;8.23;3.75;;;2.90;1.00;;;3.65;71.15;99856.41;5040074;27;118533;-74
2022/04/13 05:52:46;;;;;;;9.27;3.92;;;3.00;1.00;;;3.53;70.87;99852.00;5041329;27;119551;-74
2022/04/13 05:55:15;;;;;;;10.68;4.95;;;3.00;1.00;;;3.90;70.19;99848.50;5039697;27;130727;-73
2022/04/13 05:57:43;;;;;;;5.35;3.28;;;3.20;1.00;;;4.12;69.89;99852.94;5041068;27;130895;-73
2022/04/13 06:00:13;;;;;;;10.05;5.15;;;3.20;1.00;;;4.50;67.59;99869.78;5039338;27;119751;-73
2022/04/13 06:02:43;;;;;;;10.07;4.13;;;3.40;1.00;;;3.88;69.04;99858.72;5040300;27;119464;-72
2022/04/13 06:05:12;;;;;;;7.80;3.63;;;3.30;1.00;;;3.53;70.02;99864.59;5024547;27;129411;-73
2022/04/13 06:07:41;;;;;;;10.52;3.80;;;3.20;1.00;;;4.23;68.26;99864.56;5039277;27;130053;-73
2022/04/13 06:10:12;;;;;;;7.68;3.20;;;3.40;1.00;;;4.06;68.56;99870.91;5040530;27;121048;-72
2022/04/13 06:12:40;;;;;;;6.35;3.47;;;3.50;1.00;;;4.44;68.10;99876.22;5039450;27;122773;-73
2022/04/13 06:15:11;;;;;;;9.90;4.45;;;3.60;1.00;;;4.66;67.79;99868.00;5039288;27;129949;-72
2022/04/13 06:17:40;;;;;;;6.10;2.70;;;3.80;1.00;;;4.89;66.00;99866.69;5040701;27;128644;-74
2022/04/13 06:20:10;;;;;;;5.88;3.08;;;3.80;1.00;;;4.76;65.27;99883.34;5039561;27;120058;-72
2022/04/13 06:22:40;;;;;;;6.65;3.38;;;3.90;1.00;;;5.00;65.15;99884.50;5055100;27;119563;-72
2022/04/13 06:25:12;;;;;;;5.80;2.72;;;3.90;1.00;;;5.09;64.40;99878.59;5023863;27;128844;-72
2022/04/13 06:27:41;;;;;;;7.00;3.22;;;4.00;1.00;;;4.83;65.23;99882.03;5039269;27;131195;-71
2022/04/13 06:30:11;;;;;;;6.18;3.40;;;4.00;1.00;;;5.05;64.85;99886.41;5041245;27;118582;-72
2022/04/13 06:32:43;;;;;;;6.80;3.38;;;4.10;1.00;;;5.29;64.00;99881.34;5039249;27;119452;-73
2022/04/13 06:35:14;;;;;;;7.32;3.33;;;4.20;1.00;;;5.15;64.30;99891.00;5037260;27;130317;-72
2022/04/13 06:37:45;;;;;;;6.45;3.38;;;4.20;1.00;;;5.22;63.74;99881.59;5039054;27;130291;-73
2022/04/13 06:40:16;;;;;;;7.30;3.20;;;4.30;1.00;;;5.24;63.35;99892.09;5027999;27;119902;-73
2022/04/13 06:42:45;;;;;;;11.80;5.40;;;4.40;1.00;;;5.54;63.24;99893.22;5018719;28;120099;-73
2022/04/13 06:45:17;;;;;;;7.72;4.50;;;4.50;1.00;;;5.72;62.39;99895.38;5003993;28;129540;-70
2022/04/13 06:47:48;;;;;;;9.50;5.05;;;4.50;1.00;;;5.60;62.25;99896.72;5023871;28;129080;-74
2022/04/13 06:50:16;;;;;;;9.73;4.05;;;4.60;1.00;;;5.40;62.46;99899.09;5022131;28;120076;-74
2022/04/13 06:52:46;;;;;;;5.90;3.40;;;4.50;1.00;;;5.92;61.65;99904.50;5022854;28;119271;-72
2022/04/13 06:55:15;;;;;;;9.75;3.65;;;4.70;1.00;;;6.00;60.63;99901.31;5021865;28;130338;-74
2022/04/13 06:57:44;;;;;;;6.38;3.33;;;4.80;1.00;;;5.66;61.73;99907.22;5023701;28;128954;-74
2022/04/13 07:00:14;;;;;;;7.53;3.67;;;4.70;1.00;;;5.81;62.30;99903.69;5020736;28;122270;-73
2022/04/13 07:02:42;;;;;;;6.03;2.95;;;4.70;1.00;;;5.74;62.39;99909.38;5021745;28;122684;-72
2022/04/13 07:05:11;;;;;;;9.35;4.13;;;4.80;1.00;;;6.33;60.23;99909.88;5006950;28;129221;-75
2022/04/13 07:07:41;;;;;;;5.90;3.35;;;5.10;1.00;;;5.85;61.18;99914.75;5020358;28;129603;-74
2022/04/13 07:10:10;;;;;;;10.25;3.75;;;5.00;1.00;;;5.83;61.98;99906.13;5007380;28;119386;-73
2022/04/13 07:12:40;;;;;;;6.30;3.40;;;5.00;1.00;;;6.22;60.13;99900.22;5021569;28;119505;-72
2022/04/13 07:15:10;;;;;;;6.00;3.00;;;5.10;1.00;;;6.13;60.22;99899.16;5040422;27;129838;-73
2022/04/13 07:17:39;;;;;;;10.98;3.78;;;5.20;1.00;;;6.16;60.35;99904.78;5020441;28;129380;-72
2022/04/13 07:20:10;;;;;;;6.20;3.30;;;5.30;1.00;;;6.27;60.66;99900.19;5022009;28;119518;-71
2022/04/13 07:22:44;;;;;;;7.93;3.00;;;5.30;1.00;;;6.33;60.64;99899.09;5021372;28;119594;-72
2022/04/13 07:25:14;;;;;;;7.85;3.00;;;5.40;1.00;;;6.04;60.58;99907.75;5018587;28;130363;-73
2022/04/13 07:27:46;;;;;;;7.43;3.80;;;5.30;1.00;;;6.26;60.85;99909.34;5021443;28;129874;-72
2022/04/13 07:30:15;;;;;;;7.15;2.90;;;5.40;1.00;;;6.16;61.27;99898.59;5021229;28;119722;-73
2022/04/13 07:32:45;;;;;;;6.88;3.30;;;5.40;1.00;;;6.14;61.93;99903.44;5023659;28;118359;-73
2022/04/13 07:35:15;;;;;;;10.13;4.57;;;5.50;1.00;;;6.34;61.08;99911.50;5021135;28;129921;-73
2022/04/13 07:37:44;;;;;;;8.90;4.28;;;5.70;1.00;;;6.47;59.98;99905.53;5019827;28;129907;-73
2022/04/13 07:40:14;;;;;;;7.45;4.13;;;5.80;1.00;;;6.64;60.53;99909.81;5021525;28;119692;-72
2022/04/13 07:42:45;;;;;;;10.35;4.68;;;5.90;1.00;;;7.12;58.70;99910.13;5022057;28;119620;-74
2022/04/13 07:45:13;;;;;;;7.95;3.53;;;6.10;1.00;;;7.16;57.17;99911.19;5019821;28;130281;-73
2022/04/13 07:47:43;;;;;;;9.90;4.85;;;6.30;1.00;;;6.88;58.06;99903.78;5019855;28;129550;-73
2022/04/13 07:50:13;;;;;;;10.82;4.80;;;6.20;1.00;;;7.14;57.46;99913.34;5018679;28;122061;-72
2022/04/13 07:52:42;;;;;;;9.95;5.25;;;6.30;1.00;;;7.56;56.82;99908.50;5021873;28;122012;-74
2022/04/13 07:55:12;;;;;;;15.82;5.18;;;6.60;1.00;;;7.72;55.81;99898.41;5021195;28;130335;-73
2022/04/13 07:57:41;;;;;;;8.65;3.80;;;6.70;1.00;;;7.83;54.62;99908.03;5018607;28;129683;-73
2022/04/13 08:00:13;;;;;;;7.85;3.50;;;6.80;1.00;;;7.91;54.72;99910.09;5023681;28;121410;-73
2022/04/13 08:02:43;;;;;;;8.57;3.67;;;7.00;1.00;;;7.83;55.59;99907.22;5021463;28;119547;-73
2022/04/13 08:05:14;;;;;;;9.93;3.47;;;7.00;1.00;;;8.14;53.50;99907.75;5019683;28;130708;-72
2022/04/13 08:07:43;;;;;;;7.55;3.53;;;7.20;1.00;;;8.34;53.50;99909.44;5020951;28;130022;-73
2022/04/13 08:10:13;;;;;;;6.40;3.25;;;7.40;1.00;;;8.46;51.95;99909.06;5021395;28;119829;-74
2022/04/13 08:12:42;;;;;;;6.82;3.30;;;7.50;1.00;;;8.57;51.72;99904.34;5036971;27;119487;-73
2022/04/13 08:15:13;;;;;;;6.72;2.70;;;7.50;1.00;;;8.49;50.86;99908.50;5019672;28;129890;-73
2022/04/13 08:17:43;;;;;;;6.90;2.95;;;7.60;1.00;;;8.22;51.25;99904.41;5019740;28;129353;-76
2022/04/13 08:20:13;;;;;;;4.78;2.33;;;7.70;1.00;;;8.61;50.25;99906.19;5021050;28;119813;-69
2022/04/13 08:22:44;;;;;;;6.95;2.80;;;7.80;1.00;;;8.52;50.24;99907.94;5021156;28;119416;-72
2022/04/13 08:25:13;;;;;;;8.70;3.80;;;7.70;1.00;;;8.48;50.88;99901.50;5023223;28;132009;-71
2022/04/13 08:27:42;;;;;;;5.40;2.83;;;7.80;1.00;;;8.90;51.28;99902.63;5020441;28;129796;-72
2022/04/13 08:30:14;;;;;;;7.45;2.97;;;8.00;1.00;;;8.79;50.19;99901.16;5020736;28;120212;-73
2022/04/13 08:32:43;;;;;;;5.00;2.67;;;8.00;1.00;;;8.71;48.02;99909.88;5025314;27;119582;-74
2022/04/13 08:35:12;;;;;;;4.95;2.70;;;8.20;1.00;;;8.83;45.74;99891.34;5040071;27;129793;-74
2022/04/13 08:37:41;;;;;;;10.38;3.65;;;8.40;1.00;;;8.71;45.26;99899.06;5024576;27;129362;-71
2022/04/13 08:40:12;;;;;;;4.38;2.25;;;8.30;1.00;;;8.85;45.34;99897.28;5038443;27;122416;-71
2022/04/13 08:42:47;;;;;;;4.85;2.08;;;8.40;1.00;;;9.16;46.27;99894.16;5042697;27;120666;-73
2022/04/13 08:45:29;;;;;;;6.88;2.60;;;8.60;1.00;;;9.20;44.17;99900.59;5042394;27;130044;-75
2022/04/13 08:47:59;;;;;;;7.93;2.67;;;8.60;1.00;;;9.48;44.74;99900.75;5040219;27;131052;-72
2022/04/13 08:50:30;;;;;;;3.67;1.83;;;8.80;1.00;;;9.59;44.03;99910.31;5040689;27;119581;-76
2022/04/13 08:53:02;;;;;;;4.32;1.67;;;8.90;1.00;;;9.63;44.30;99889.66;5042835;27;119196;-76
2022/04/13 08:55:32;;;;;;;5.55;1.90;;;8.90;1.00;;;9.76;44.00;99885.41;5040292;27;130819;-72
2022/04/13 08:58:15;;;;;;;4.10;1.98;;;9.10;1.00;;;9.86;44.58;99893.38;5039179;27;130143;-74
2022/04/13 09:00:54;;;;;;;5.30;2.10;;;9.20;1.00;;;9.83;43.87;99896.66;5040456;27;119443;-74
2022/04/13 09:03:35;;;;;;;4.60;1.80;;;9.20;1.00;;;9.68;43.55;99894.22;5042515;27;119182;-74
2022/04/13 09:06:06;;;;;;;7.18;1.90;;;9.20;1.00;;;9.73;42.95;99896.03;5038141;27;130205;-75
2022/04/13 09:08:50;;;;;;;3.88;1.60;;;9.30;1.00;;;10.23;42.40;99897.03;5041856;27;129297;-72
2022/04/13 09:11:21;;;;;;;4.80;1.50;;;9.30;1.00;;;9.77;42.54;99891.59;5040548;27;119687;-73
2022/04/13 09:13:50;;;;;;;2.97;1.00;;;9.30;1.00;;;9.69;42.11;99891.19;5040473;27;120318;-74
2022/04/13 09:16:20;;;;;;;4.57;1.30;;;9.30;1.00;;;10.48;41.79;99889.56;5039336;27;129826;-73
2022/04/13 09:18:50;;;;;;;3.22;1.48;;;9.80;1.00;;;10.61;41.40;99877.09;5040131;27;130171;-78
2022/04/13 09:21:19;;;;;;;5.90;1.52;;;9.80;1.00;;;10.81;40.97;99877.78;5040245;27;119697;-75
2022/04/13 09:23:48;;;;;;;3.90;1.40;;;10.00;1.00;;;10.81;41.70;99875.06;5040733;27;119453;-72
2022/04/13 09:26:18;;;;;;;14.95;8.77;;;10.00;1.00;;;10.85;41.35;99876.88;5041922;27;130367;-71
2022/04/13 09:28:47;;;;;;;8.20;3.47;;;10.00;1.00;;;10.71;40.62;99884.25;5040076;27;130025;-74
2022/04/13 09:31:15;;;;;;;4.78;1.38;;;10.00;1.00;;;10.57;40.20;99876.09;5038594;27;122497;-73
2022/04/13 09:33:45;;;;;;;5.43;1.63;;;10.00;1.00;;;10.81;40.24;99877.78;5040199;27;121845;-74
2022/04/13 09:36:14;;;;;;;3.45;1.50;;;10.10;1.00;;;11.26;40.11;99877.91;5039887;27;130199;-76
2022/04/13 09:38:45;;;;;;;4.07;1.77;;;10.30;1.00;;;11.19;39.73;99880.22;5039871;27;130233;-73
2022/04/13 09:41:14;;;;;;;6.05;1.70;;;10.40;1.00;;;10.70;39.28;99879.91;5040184;27;120441;-75
2022/04/13 09:43:55;;;;;;;18.30;9.05;;;10.10;1.00;;;10.71;40.29;99876.88;5040572;27;119661;-75
2022/04/13 09:46:29;;;;;;;3.80;1.50;;;10.20;1.00;;;10.76;39.90;99868.63;5040292;27;129699;-75
2022/04/13 09:49:13;;;;;;;3.40;1.33;;;10.20;1.00;;;11.19;40.89;99875.59;5039971;27;129883;-73
2022/04/13 09:51:43;;;;;;;5.70;1.73;;;10.50;1.00;;;11.43;39.44;99875.31;5039980;27;119588;-73
2022/04/13 09:54:13;;;;;;;4.95;2.38;;;10.60;1.00;;;11.72;39.10;99876.81;5042785;27;122155;-73
2022/04/13 09:56:47;;;;;;;4.95;1.70;;;10.80;1.00;;;11.95;38.94;99868.66;5038346;27;131121;-73
2022/04/13 09:59:27;;;;;;;9.35;4.93;;;10.90;1.00;;;11.69;39.12;99882.88;5039482;27;129421;-72
2022/04/13 10:01:55;;;;;;;6.72;3.22;;;10.90;1.00;;;11.72;40.13;99882.25;5040085;27;119931;-72
2022/04/13 10:04:27;;;;;;;8.02;2.20;;;10.90;1.00;;;11.77;37.86;99879.41;5039790;27;119220;-73
2022/04/13 10:06:56;;;;;;;2.42;1.30;;;11.00;1.00;;;12.31;35.73;99878.59;5041067;27;129984;-74
2022/04/13 10:09:24;;;;;;;3.03;1.40;;;11.20;1.00;;;11.84;35.64;99874.34;5039308;27;130335;-72
2022/04/13 10:12:01;;;;;;;5.38;1.58;;;11.00;1.00;;;11.75;35.77;99873.47;5038514;27;119266;-74
2022/04/13 10:14:29;;;;;;;;;;;11.00;1.00;;;11.84;35.14;99866.19;5040880;27;119242;-74
2022/04/13 10:17:07;;;;;;;16.90;7.18;;;11.10;1.00;;;12.12;34.60;99889.72;5039831;27;130218;-74
2022/04/13 10:19:37;;;;;;;28.52;12.48;;;11.20;1.00;;;12.26;35.34;99878.72;5055085;27;129525;-72
2022/04/13 10:22:07;;;;;;;6.80;2.25;;;11.40;1.00;;;12.27;35.08;99878.41;5044251;27;121398;-72
2022/04/13 10:24:39;;;;;;;7.60;2.78;;;11.40;1.00;;;12.04;34.42;99877.66;5043447;27;121845;-74
2022/04/13 10:27:17;;;;;;;4.57;1.33;;;11.30;1.00;;;11.79;34.99;99889.97;5044317;27;129037;-76
2022/04/13 10:29:48;;;;;;;3.58;1.60;;;11.10;1.00;;;11.96;34.36;99871.06;5044305;27;128630;-74
2022/04/13 10:32:19;;;;;;;3.22;1.58;;;11.20;1.00;;;12.16;33.87;99880.59;5043841;27;120339;-76
2022/04/13 10:34:52;;;;;;;3.70;1.50;;;11.30;1.00;;;12.30;33.22;99868.84;5043564;27;119387;-75
2022/04/13 10:37:23;;;;;;;15.43;7.05;;;11.50;1.00;;;12.13;34.01;99875.00;5026934;27;129106;-75
2022/04/13 10:39:53;;;;;;;11.18;4.30;;;11.50;1.00;;;12.43;32.86;99864.41;5028492;27;128771;-72
2022/04/13 10:42:22;;;;;;;6.05;2.17;;;11.50;1.00;;;11.94;33.29;99861.63;5042470;27;119888;-73